Atoka, TN (38004)

5:42 PM CDT on August 28, 2015 (GMT -0500)
KTNMUNFO2 | | Change Station
CLOSE
Current Station
Personal Weather Station
Location: Munford, TN
Elevation: 394 ft
Nearby Weather Stations

Elev 394 ft 35.42 °N, 89.83 °W | Updated 15 minutes ago

Partly Cloudy
Partly Cloudy
84.6 °F
Feels Like 88 °F
N
1.1
Wind Variable Wind from NNE

Today
High -- | Low -- °F
--% Chance of Precip.
Yesterday
High -- | Low -- °F
Precip. -- in
6:28 AM 7:32 PM
Waxing Gibbous, 99% visible
Pressure 30.00 in
Visibility 10.0 miles
Clouds Scattered Clouds 7000 ft
Scattered Clouds 25000 ft
Heat Index 88 °F
Dew Point 68 °F
Humidity 58%
Rainfall 0.00 in
Snow Depth Not available.
UV 3 out of 12
Pollen 9.00 out of 12
Air Quality Not available.
Flu Activity Not available.
METAR KNQA 282150Z 14006KT 10SM SCT070 SCT250 33/22 A3000
Pressure 30.00 in
Visibility 10.0 miles
Clouds Scattered Clouds 7000 ft
Scattered Clouds 25000 ft
Heat Index 88 °F
Dew Point 68 °F
Humidity 58%
Rainfall 0.00 in
Snow Depth Not available.
UV 3 out of 12
Pollen 9.00 out of 12
Air Quality Not available.
Flu Activity Not available.
METAR KNQA 282150Z 14006KT 10SM SCT070 SCT250 33/22 A3000

10-Day Weather Forecast

×

Almanac

Astronomy

Aug. 28, 2015 Rise Set
Actual Time
Civil Twilight
Nautical Twilight
Astronomical Twilight
Moon
Length of Visible Light
Length of Day
Tomorrow will be .
, % of the Moon is Illuminated

Today's Extremes

State Highs State Lows

Community

WunderPhotos

Upload Photos

1,850,516 photos uploaded!

WunderBlogs® & News

Nearby

Air Quality

  Air Quality AQ Index Pollutant
Not available.

Snow Depth

Station Depth Elevation

Earthquake Activity

City Distance Mag. Time & Date
Minimum magnitude displayed is 2.5.

Coastal Water Temperatures

Place Temperature

Stations

Nearby Weather Stations

Station Location Temp. Windchill Dew Point Humidity Wind Precip. Elev Updated Type